createdAt,value
2023-04-28T00:00:13.698Z,13.18
2023-04-28T00:02:41.614Z,14.75
2023-04-28T00:05:09.905Z,10.25
2023-04-28T00:07:39.162Z,14.90
2023-04-28T00:10:07.415Z,17.95
2023-04-28T00:12:35.081Z,12.30
2023-04-28T00:15:03.687Z,14.85
2023-04-28T00:17:31.528Z,13.55
2023-04-28T00:19:59.271Z,13.68
2023-04-28T00:22:26.936Z,16.58
2023-04-28T00:24:56.012Z,12.60
2023-04-28T00:27:23.685Z,13.82
2023-04-28T00:29:51.400Z,18.45
2023-04-28T00:32:19.183Z,20.40
2023-04-28T00:34:46.891Z,16.10
2023-04-28T00:37:14.582Z,11.20
2023-04-28T00:39:45.582Z,12.45
2023-04-28T00:42:14.715Z,16.73
2023-04-28T00:44:42.604Z,16.27
2023-04-28T00:47:10.959Z,15.02
2023-04-28T00:49:38.820Z,12.95
2023-04-28T00:52:07.102Z,14.75
2023-04-28T00:54:35.057Z,14.88
2023-04-28T00:57:04.847Z,15.48
2023-04-28T00:59:33.913Z,14.63
2023-04-28T01:02:02.328Z,16.92
2023-04-28T01:04:30.555Z,15.35
2023-04-28T01:06:59.256Z,12.85
2023-04-28T01:09:27.136Z,13.75
2023-04-28T01:11:55.660Z,12.73
2023-04-28T01:14:53.956Z,13.90
2023-04-28T01:17:21.939Z,14.65
2023-04-28T01:19:50.116Z,14.00
2023-04-28T01:22:17.869Z,15.88
2023-04-28T01:24:48.206Z,15.02
2023-04-28T01:27:16.611Z,19.63
2023-04-28T01:29:45.128Z,15.20
2023-04-28T01:32:13.490Z,14.70
2023-04-28T01:34:41.175Z,14.93
2023-04-28T01:37:08.927Z,11.55
2023-04-28T01:39:38.193Z,15.77
2023-04-28T01:42:07.425Z,16.75
2023-04-28T01:44:35.176Z,16.05
2023-04-28T01:47:02.849Z,14.07
2023-04-28T01:49:30.791Z,13.50
2023-04-28T01:51:58.460Z,15.27
2023-04-28T01:54:27.311Z,15.13
2023-04-28T01:56:55.164Z,14.38
2023-04-28T01:59:24.487Z,16.58
2023-04-28T02:01:52.227Z,11.82
2023-04-28T02:04:20.369Z,10.05
2023-04-28T02:06:48.192Z,12.07
2023-04-28T02:09:16.042Z,14.50
2023-04-28T02:11:43.721Z,15.65
2023-04-28T02:14:11.389Z,19.05
2023-04-28T02:16:40.501Z,15.52
2023-04-28T02:19:08.178Z,15.10
2023-04-28T02:21:35.848Z,17.58
2023-04-28T02:24:03.503Z,15.35
2023-04-28T02:26:32.532Z,13.52
2023-04-28T02:29:00.261Z,18.02
2023-04-28T02:31:28.072Z,17.52
2023-04-28T02:33:57.152Z,17.70
2023-04-28T02:36:24.868Z,20.48
2023-04-28T02:38:52.609Z,18.73
2023-04-28T02:41:20.294Z,19.10
2023-04-28T02:43:47.998Z,14.93
2023-04-28T02:46:15.800Z,18.65
2023-04-28T02:48:43.492Z,18.65
2023-04-28T02:51:14.741Z,14.88
2023-04-28T02:53:43.201Z,17.00
2023-04-28T02:56:11.148Z,18.23
2023-04-28T02:58:38.998Z,17.45
2023-04-28T03:01:06.774Z,16.92
2023-04-28T03:03:34.799Z,15.48
2023-04-28T03:06:02.645Z,17.10
2023-04-28T03:08:31.696Z,14.73
2023-04-28T03:10:59.433Z,14.50
2023-04-28T03:13:27.276Z,15.52
2023-04-28T03:15:55.248Z,17.23
2023-04-28T03:18:24.065Z,14.82
2023-04-28T03:20:51.724Z,13.63
2023-04-28T03:23:20.657Z,15.25
2023-04-28T03:25:49.712Z,16.77
2023-04-28T03:28:17.385Z,15.82
2023-04-28T03:30:45.751Z,18.55
2023-04-28T03:33:13.439Z,17.52
2023-04-28T03:35:41.815Z,14.45
2023-04-28T03:38:09.699Z,19.15
2023-04-28T03:40:37.996Z,14.40
2023-04-28T03:43:12.631Z,16.80
2023-04-28T03:45:52.686Z,19.58
2023-04-28T03:48:20.489Z,14.45
2023-04-28T03:50:48.194Z,15.45
2023-04-28T03:53:16.285Z,19.45
2023-04-28T03:55:44.075Z,14.40
2023-04-28T03:58:14.535Z,15.98
2023-04-28T04:00:42.217Z,15.45
2023-04-28T04:03:10.374Z,13.65
2023-04-28T04:05:38.344Z,19.05
2023-04-28T04:08:06.852Z,16.92
2023-04-28T04:10:34.544Z,16.65
2023-04-28T04:13:02.209Z,18.75
2023-04-28T04:15:31.530Z,15.63
2023-04-28T04:17:59.495Z,16.85
2023-04-28T04:20:31.381Z,12.85
2023-04-28T04:22:59.164Z,20.05
2023-04-28T04:25:26.918Z,15.70
2023-04-28T04:27:55.681Z,14.57
2023-04-28T04:30:23.398Z,17.33
2023-04-28T04:32:52.550Z,15.13
2023-04-28T04:35:20.261Z,15.57
2023-04-28T04:37:48.345Z,14.77
2023-04-28T04:40:17.022Z,19.02
2023-04-28T04:42:49.817Z,15.27
2023-04-28T04:45:19.758Z,15.23
2023-04-28T04:47:48.369Z,16.10
2023-04-28T04:50:17.682Z,16.30
2023-04-28T04:52:46.191Z,14.27
2023-04-28T04:55:13.876Z,16.63
2023-04-28T04:57:42.847Z,18.58
2023-04-28T05:00:29.259Z,15.02
2023-04-28T05:02:57.824Z,15.80
2023-04-28T05:05:27.084Z,15.52
2023-04-28T05:08:11.089Z,16.38
2023-04-28T05:10:38.763Z,16.67
2023-04-28T05:13:07.006Z,17.02
2023-04-28T05:15:34.700Z,19.45
2023-04-28T05:18:21.259Z,19.27
2023-04-28T05:20:50.321Z,15.00
2023-04-28T05:23:19.664Z,17.67
2023-04-28T05:25:48.701Z,18.83
2023-04-28T05:28:16.373Z,14.93
2023-04-28T05:30:45.737Z,17.30
2023-04-28T05:33:14.897Z,15.65
2023-04-28T05:35:43.566Z,15.95
2023-04-28T05:38:12.659Z,16.70
2023-04-28T05:40:40.574Z,16.42
2023-04-28T05:43:08.257Z,18.13
2023-04-28T05:45:36.124Z,16.55
2023-04-28T05:48:05.133Z,16.58
2023-04-28T05:50:33.515Z,24.25
2023-04-28T05:53:02.601Z,16.17
2023-04-28T05:55:33.789Z,18.52
2023-04-28T05:58:01.806Z,18.55
2023-04-28T06:00:29.538Z,17.92
2023-04-28T06:03:00.574Z,17.58
2023-04-28T06:05:28.568Z,17.08
2023-04-28T06:07:57.060Z,16.75
2023-04-28T06:10:24.767Z,19.65
2023-04-28T06:12:53.930Z,17.98
2023-04-28T06:15:21.829Z,18.00
2023-04-28T06:17:49.581Z,19.27
2023-04-28T06:20:17.959Z,22.88
2023-04-28T06:22:45.782Z,21.52
2023-04-28T06:25:13.526Z,19.25
2023-04-28T06:27:46.150Z,17.67
2023-04-28T06:30:18.300Z,19.38
2023-04-28T06:32:46.228Z,18.58
2023-04-28T06:35:13.998Z,16.10
2023-04-28T06:37:41.794Z,20.70
2023-04-28T06:40:09.908Z,18.35
2023-04-28T06:42:41.072Z,17.73
2023-04-28T06:45:12.891Z,19.35
2023-04-28T06:47:42.040Z,18.50
2023-04-28T06:50:10.561Z,16.73
2023-04-28T06:52:40.080Z,19.67
2023-04-28T06:55:09.342Z,18.48
2023-04-28T06:57:37.838Z,19.40
2023-04-28T07:00:06.218Z,19.02
2023-04-28T07:02:34.061Z,19.45
2023-04-28T07:05:03.479Z,19.33
2023-04-28T07:07:31.130Z,19.55
2023-04-28T07:09:59.116Z,17.73
2023-04-28T07:12:26.859Z,20.13
2023-04-28T07:14:55.826Z,17.98
2023-04-28T07:17:23.589Z,16.67
2023-04-28T07:19:51.265Z,18.70
2023-04-28T07:22:20.508Z,16.80
2023-04-28T07:24:48.418Z,18.67
2023-04-28T07:27:16.209Z,16.95
2023-04-28T07:29:43.986Z,17.83
2023-04-28T07:32:11.653Z,19.83
2023-04-28T07:34:39.392Z,17.45
2023-04-28T07:37:07.089Z,18.63
2023-04-28T07:39:36.750Z,16.27
2023-04-28T07:42:04.447Z,22.95
2023-04-28T07:44:32.482Z,15.68
2023-04-28T07:47:00.295Z,19.02
2023-04-28T07:49:28.002Z,15.93
2023-04-28T07:51:56.600Z,16.38
2023-04-28T07:54:24.307Z,18.08
2023-04-28T07:56:53.370Z,14.55
2023-04-28T07:59:21.182Z,15.02
2023-04-28T08:01:48.838Z,17.52
2023-04-28T08:04:16.749Z,16.15
2023-04-28T08:06:44.675Z,13.93
2023-04-28T08:09:12.358Z,13.98
2023-04-28T08:11:40.059Z,11.88
2023-04-28T08:14:09.118Z,13.63
2023-04-28T08:16:40.291Z,12.10
2023-04-28T08:19:08.293Z,12.65
2023-04-28T08:21:36.346Z,9.25
2023-04-28T08:24:04.066Z,11.15
2023-04-28T08:26:32.262Z,7.13
2023-04-28T08:28:59.985Z,7.70
2023-04-28T08:31:29.090Z,7.55
2023-04-28T08:33:56.750Z,9.00
2023-04-28T08:36:25.142Z,4.05
2023-04-28T08:38:52.774Z,3.40
2023-04-28T08:41:21.711Z,3.45
2023-04-28T08:43:49.360Z,4.30
2023-04-28T08:46:17.238Z,3.33
2023-04-28T08:48:46.552Z,2.45
2023-04-28T08:51:15.974Z,2.22
2023-04-28T08:54:14.466Z,2.42
2023-04-28T08:56:33.822Z,3.80
2023-04-28T08:59:03.445Z,2.30
2023-04-28T09:01:31.441Z,2.88
2023-04-28T09:04:01.853Z,2.60
2023-04-28T09:06:32.960Z,2.67
2023-04-28T09:09:15.628Z,3.03
2023-04-28T09:11:51.794Z,3.42
2023-04-28T09:14:19.495Z,2.28
2023-04-28T09:16:47.299Z,2.33
2023-04-28T09:19:17.144Z,1.55
2023-04-28T09:21:49.324Z,2.95
2023-04-28T09:24:30.372Z,1.35
2023-04-28T09:26:58.065Z,2.97
2023-04-28T09:29:25.819Z,2.30
2023-04-28T09:31:54.366Z,2.95
2023-04-28T09:34:23.417Z,1.63
2023-04-28T09:36:51.100Z,3.08
2023-04-28T09:39:29.692Z,2.08
2023-04-28T09:41:57.443Z,2.03
2023-04-28T09:44:25.174Z,2.03
2023-04-28T09:46:52.847Z,1.15
2023-04-28T09:49:20.641Z,1.77
2023-04-28T09:51:50.272Z,3.20
2023-04-28T09:54:18.410Z,1.27
2023-04-28T09:56:48.552Z,1.95
2023-04-28T09:59:16.253Z,1.40
2023-04-28T10:01:44.873Z,2.17
2023-04-28T10:04:13.815Z,1.65
2023-04-28T10:06:41.838Z,2.03
2023-04-28T10:09:12.284Z,1.60
2023-04-28T10:11:40.702Z,1.33
2023-04-28T10:14:08.437Z,1.40
2023-04-28T10:16:36.250Z,2.63
2023-04-28T10:19:04.252Z,1.35
2023-04-28T10:21:34.550Z,1.60
2023-04-28T10:24:10.195Z,1.65
2023-04-28T10:26:52.709Z,1.60
2023-04-28T10:29:25.872Z,1.25
2023-04-28T10:32:12.382Z,1.70
2023-04-28T10:34:40.036Z,2.65
2023-04-28T10:37:07.769Z,2.47
2023-04-28T10:39:35.637Z,1.42
2023-04-28T10:42:03.309Z,0.73
2023-04-28T10:44:44.877Z,0.95
2023-04-28T10:47:12.609Z,1.25
2023-04-28T10:49:59.212Z,3.97
2023-04-28T10:52:47.557Z,0.85
2023-04-28T10:55:28.679Z,1.27
2023-04-28T10:58:11.864Z,0.98
2023-04-28T11:00:41.785Z,3.80
2023-04-28T11:03:09.978Z,1.58
2023-04-28T11:05:37.888Z,4.30
2023-04-28T11:08:33.238Z,2.30
2023-04-28T11:11:16.771Z,2.67
2023-04-28T11:13:46.924Z,1.63
2023-04-28T11:16:19.635Z,3.08
2023-04-28T11:18:54.936Z,2.38
2023-04-28T11:21:23.786Z,2.47
2023-04-28T11:23:51.804Z,3.58
2023-04-28T11:26:20.318Z,4.45
2023-04-28T11:28:50.504Z,3.35
2023-04-28T11:31:21.712Z,1.23
2023-04-28T11:34:00.385Z,1.20
2023-04-28T11:36:29.412Z,1.73
2023-04-28T11:38:57.914Z,2.03
2023-04-28T11:41:26.648Z,2.53
2023-04-28T11:43:54.606Z,1.38
2023-04-28T11:46:24.643Z,0.80
2023-04-28T11:49:01.427Z,1.77
2023-04-28T11:51:30.440Z,2.53
2023-04-28T11:53:58.108Z,1.20
2023-04-28T11:56:26.509Z,2.30
2023-04-28T11:59:05.397Z,1.20
2023-04-28T12:01:37.267Z,2.25
2023-04-28T12:04:05.157Z,5.78
2023-04-28T12:06:33.600Z,1.60
2023-04-28T12:09:04.543Z,2.72
2023-04-28T12:11:32.298Z,2.85
2023-04-28T12:14:06.742Z,3.28
2023-04-28T12:16:44.816Z,1.33
2023-04-28T12:19:13.005Z,2.20
2023-04-28T12:21:40.867Z,1.25
2023-04-28T12:24:15.233Z,5.03
2023-04-28T12:26:43.225Z,2.40
2023-04-28T12:29:11.134Z,2.60
2023-04-28T12:31:53.199Z,2.25
2023-04-28T12:34:20.974Z,3.67
2023-04-28T12:36:48.670Z,3.35
2023-04-28T12:39:19.842Z,3.63
2023-04-28T12:41:47.583Z,3.83
2023-04-28T12:44:15.974Z,5.78
2023-04-28T12:46:43.944Z,0.95
2023-04-28T12:49:13.171Z,2.60
2023-04-28T12:51:40.989Z,3.00
2023-04-28T12:54:08.983Z,2.28
2023-04-28T12:56:36.633Z,1.73
2023-04-28T12:59:04.692Z,1.50
2023-04-28T13:01:32.521Z,1.63
2023-04-28T13:04:00.510Z,3.22
2023-04-28T13:06:30.131Z,2.17
2023-04-28T13:08:57.863Z,2.22
2023-04-28T13:11:27.969Z,1.20
2023-04-28T13:13:56.971Z,1.33
2023-04-28T13:16:28.842Z,2.60
2023-04-28T13:18:57.717Z,2.10
2023-04-28T13:21:26.894Z,1.73
2023-04-28T13:23:56.602Z,1.52
2023-04-28T13:26:25.053Z,1.20
2023-04-28T13:28:53.191Z,1.17
2023-04-28T13:31:21.398Z,1.42
2023-04-28T13:33:49.108Z,2.03
2023-04-28T13:36:16.787Z,2.67
2023-04-28T13:38:48.696Z,2.45
2023-04-28T13:41:18.067Z,1.98
2023-04-28T13:43:45.941Z,2.30
2023-04-28T13:46:13.676Z,1.48
2023-04-28T13:48:41.979Z,1.58
2023-04-28T13:51:09.792Z,2.45
2023-04-28T13:53:37.993Z,1.40
2023-04-28T13:56:06.030Z,3.35
2023-04-28T13:58:35.425Z,1.65
2023-04-28T14:01:03.950Z,2.08
2023-04-28T14:03:31.928Z,3.70
2023-04-28T14:05:59.876Z,3.65
2023-04-28T14:08:28.887Z,1.83
2023-04-28T14:10:56.867Z,1.75
2023-04-28T14:13:25.440Z,2.35
2023-04-28T14:15:59.270Z,1.83
2023-04-28T14:18:27.559Z,2.00
2023-04-28T14:20:55.266Z,2.05
2023-04-28T14:23:23.053Z,1.50
2023-04-28T14:25:52.369Z,3.92
2023-04-28T14:28:21.713Z,2.13
2023-04-28T14:30:50.024Z,2.28
2023-04-28T14:33:19.135Z,2.20
2023-04-28T14:35:46.816Z,2.65
2023-04-28T14:38:14.539Z,2.20
2023-04-28T14:40:42.962Z,4.07
2023-04-28T14:43:10.895Z,2.70
2023-04-28T14:45:38.627Z,2.33
2023-04-28T14:48:07.154Z,2.63
2023-04-28T14:50:36.316Z,4.75
2023-04-28T14:53:07.086Z,2.45
2023-04-28T14:55:34.988Z,3.50
2023-04-28T14:58:02.992Z,3.60
2023-04-28T15:00:31.373Z,4.38
2023-04-28T15:02:59.230Z,4.75
2023-04-28T15:05:27.169Z,4.82
2023-04-28T15:07:56.318Z,6.72
2023-04-28T15:10:23.998Z,4.57
2023-04-28T15:12:51.848Z,3.85
2023-04-28T15:15:19.702Z,6.82
2023-04-28T15:17:47.471Z,5.13
2023-04-28T15:20:15.347Z,6.40
2023-04-28T15:22:44.525Z,5.40
2023-04-28T15:25:13.772Z,4.32
2023-04-28T15:27:41.421Z,5.75
2023-04-28T15:30:10.014Z,5.25
2023-04-28T15:32:38.157Z,6.18
2023-04-28T15:35:06.636Z,4.50
2023-04-28T15:37:41.579Z,5.07
2023-04-28T15:40:10.258Z,5.25
2023-04-28T15:42:41.912Z,6.70
2023-04-28T15:45:11.173Z,3.45
2023-04-28T15:47:40.478Z,3.50
2023-04-28T15:50:08.973Z,2.92
2023-04-28T15:52:38.749Z,3.28
2023-04-28T15:55:06.982Z,2.50
2023-04-28T15:57:34.730Z,7.63
2023-04-28T16:00:03.819Z,3.58
2023-04-28T16:02:35.595Z,4.15
2023-04-28T16:05:04.692Z,2.63
2023-04-28T16:07:38.005Z,4.80
2023-04-28T16:10:07.727Z,4.70
2023-04-28T16:12:36.265Z,1.63
2023-04-28T16:15:05.660Z,2.65
2023-04-28T16:17:34.169Z,1.90
2023-04-28T16:20:01.893Z,2.55
2023-04-28T16:22:29.769Z,1.73
2023-04-28T16:24:57.721Z,4.22
2023-04-28T16:27:25.406Z,3.03
2023-04-28T16:29:53.075Z,2.05
2023-04-28T16:32:22.323Z,4.47
2023-04-28T16:34:50.781Z,2.60
2023-04-28T16:37:18.850Z,2.45
2023-04-28T16:39:46.582Z,4.57
2023-04-28T16:42:14.425Z,2.13
2023-04-28T16:44:43.337Z,1.70
2023-04-28T16:47:11.067Z,3.03
2023-04-28T16:49:40.084Z,3.65
2023-04-28T16:52:07.944Z,1.38
2023-04-28T16:54:35.610Z,2.50
2023-04-28T16:57:04.071Z,2.50
2023-04-28T16:59:33.269Z,2.58
2023-04-28T17:02:01.811Z,1.98
2023-04-28T17:04:29.806Z,1.42
2023-04-28T17:06:59.245Z,1.20
2023-04-28T17:09:28.051Z,2.65
2023-04-28T17:11:56.163Z,1.30
2023-04-28T17:14:23.893Z,1.92
2023-04-28T17:16:51.623Z,3.55
2023-04-28T17:19:19.304Z,3.15
2023-04-28T17:21:49.811Z,3.33
2023-04-28T17:24:18.912Z,3.05
2023-04-28T17:26:47.040Z,3.63
2023-04-28T17:29:15.420Z,2.72
2023-04-28T17:31:43.163Z,2.40
2023-04-28T17:34:10.897Z,3.13
2023-04-28T17:36:38.587Z,4.32
2023-04-28T17:39:06.306Z,2.90
2023-04-28T17:41:35.395Z,4.32
2023-04-28T17:44:03.095Z,3.65
2023-04-28T17:46:30.832Z,6.03
2023-04-28T17:48:59.966Z,3.85
2023-04-28T17:51:27.808Z,5.88
2023-04-28T17:53:56.752Z,3.00
2023-04-28T17:56:24.568Z,5.57
2023-04-28T17:58:53.580Z,4.03
2023-04-28T18:01:21.276Z,3.55
2023-04-28T18:03:49.060Z,4.65
2023-04-28T18:06:17.038Z,5.18
2023-04-28T18:08:44.711Z,8.32
2023-04-28T18:11:12.499Z,4.10
2023-04-28T18:13:40.268Z,4.65
2023-04-28T18:16:13.622Z,7.00
2023-04-28T18:18:41.480Z,4.63
2023-04-28T18:21:09.226Z,4.97
2023-04-28T18:23:36.943Z,5.00
2023-04-28T18:26:04.608Z,5.32
2023-04-28T18:28:33.828Z,6.57
2023-04-28T18:31:03.091Z,5.20
2023-04-28T18:33:32.116Z,6.32
2023-04-28T18:36:00.502Z,5.93
2023-04-28T18:38:28.467Z,6.53
2023-04-28T18:40:56.151Z,8.15
2023-04-28T18:43:25.885Z,8.90
2023-04-28T18:45:53.665Z,9.23
2023-04-28T18:48:22.743Z,8.18
2023-04-28T18:50:52.021Z,8.68
2023-04-28T18:53:19.769Z,10.07
2023-04-28T18:55:47.449Z,15.32
2023-04-28T18:58:15.812Z,12.45
2023-04-28T19:00:45.799Z,14.20
2023-04-28T19:03:14.055Z,16.20
2023-04-28T19:05:43.088Z,13.38
2023-04-28T19:08:13.029Z,17.85
2023-04-28T19:10:41.168Z,19.80
2023-04-28T19:13:08.833Z,17.33
2023-04-28T19:15:36.495Z,14.70
2023-04-28T19:18:05.190Z,18.55
2023-04-28T19:20:33.145Z,21.27
2023-04-28T19:23:02.377Z,19.35
2023-04-28T19:25:33.636Z,24.33
2023-04-28T19:28:01.408Z,19.55
2023-04-28T19:30:29.133Z,17.55
2023-04-28T19:32:56.855Z,20.13
2023-04-28T19:35:24.809Z,20.65
2023-04-28T19:37:52.958Z,18.73
2023-04-28T19:40:20.779Z,18.25
2023-04-28T19:42:50.251Z,18.77
2023-04-28T19:45:18.080Z,18.45
2023-04-28T19:47:45.813Z,20.98
2023-04-28T19:50:13.500Z,22.48
2023-04-28T19:52:41.659Z,20.05
2023-04-28T19:55:10.694Z,21.55
2023-04-28T19:57:38.356Z,17.95
2023-04-28T20:00:09.666Z,22.73
2023-04-28T20:02:37.430Z,21.95
2023-04-28T20:05:05.808Z,20.60
2023-04-28T20:07:33.731Z,18.33
2023-04-28T20:10:01.402Z,21.27
2023-04-28T20:12:29.070Z,19.42
2023-04-28T20:14:56.815Z,21.50
2023-04-28T20:17:25.896Z,24.23
2023-04-28T20:19:53.636Z,20.00
2023-04-28T20:22:21.369Z,23.10
2023-04-28T20:24:49.010Z,21.45
2023-04-28T20:27:16.845Z,21.90
2023-04-28T20:29:45.096Z,20.23
2023-04-28T20:32:12.958Z,20.80
2023-04-28T20:34:42.524Z,17.95
2023-04-28T20:37:11.142Z,21.35
2023-04-28T20:39:38.836Z,24.25
2023-04-28T20:42:06.480Z,19.77
2023-04-28T20:44:34.511Z,21.58
2023-04-28T20:47:02.392Z,23.02
2023-04-28T20:49:30.824Z,24.58
2023-04-28T20:52:05.122Z,22.98
2023-04-28T20:54:33.584Z,22.95
2023-04-28T20:57:03.046Z,23.27
2023-04-28T20:59:32.441Z,26.77
2023-04-28T21:02:00.668Z,23.30
2023-04-28T21:04:28.713Z,29.77
2023-04-28T21:06:56.481Z,27.45
2023-04-28T21:09:25.642Z,30.25
2023-04-28T21:11:53.367Z,32.33
2023-04-28T21:14:21.844Z,29.92
2023-04-28T21:16:49.525Z,31.83
2023-04-28T21:19:17.433Z,29.70
2023-04-28T21:21:45.174Z,30.90
2023-04-28T21:24:12.841Z,32.00
2023-04-28T21:26:42.148Z,29.13
2023-04-28T21:29:09.823Z,35.30
2023-04-28T21:31:37.779Z,31.23
2023-04-28T21:34:05.493Z,28.48
2023-04-28T21:36:34.296Z,32.63
2023-04-28T21:39:03.907Z,31.38
2023-04-28T21:41:31.733Z,31.73
2023-04-28T21:44:00.787Z,31.45
2023-04-28T21:46:28.678Z,34.70
2023-04-28T21:48:56.575Z,34.85
2023-04-28T21:51:24.253Z,36.38
2023-04-28T21:53:51.920Z,36.58
2023-04-28T21:56:19.601Z,36.35
2023-04-28T21:58:47.292Z,38.10
2023-04-28T22:01:17.956Z,32.90
2023-04-28T22:03:46.141Z,36.40
2023-04-28T22:06:14.107Z,34.60
2023-04-28T22:08:41.760Z,34.35
2023-04-28T22:11:09.663Z,32.58
2023-04-28T22:13:37.347Z,28.85
2023-04-28T22:16:05.756Z,37.35
2023-04-28T22:18:34.873Z,36.83
2023-04-28T22:21:02.545Z,37.80
2023-04-28T22:23:30.337Z,31.85
2023-04-28T22:25:59.031Z,36.88
2023-04-28T22:28:26.929Z,37.28
2023-04-28T22:30:54.878Z,44.28
2023-04-28T22:33:22.658Z,40.22
2023-04-28T22:35:51.703Z,39.28
2023-04-28T22:38:19.407Z,39.38
2023-04-28T22:40:47.087Z,35.13
2023-04-28T22:43:14.771Z,38.92
2023-04-28T22:45:45.503Z,35.28
2023-04-28T22:48:13.325Z,37.25
2023-04-28T22:50:41.164Z,31.45
2023-04-28T22:53:10.206Z,25.60
2023-04-28T22:55:37.862Z,26.58
2023-04-28T22:58:05.634Z,31.35
2023-04-28T23:00:33.762Z,24.52
2023-04-28T23:03:01.552Z,27.58
2023-04-28T23:05:29.301Z,27.67
2023-04-28T23:07:56.939Z,30.10
2023-04-28T23:10:26.112Z,28.58
2023-04-28T23:12:53.826Z,28.25
2023-04-28T23:15:21.471Z,31.55
2023-04-28T23:17:49.136Z,27.33
2023-04-28T23:20:16.814Z,29.20
2023-04-28T23:22:44.496Z,31.73
2023-04-28T23:25:12.400Z,31.27
2023-04-28T23:27:41.428Z,28.60
2023-04-28T23:30:09.884Z,29.48
2023-04-28T23:32:38.570Z,32.72
2023-04-28T23:35:06.748Z,29.42
2023-04-28T23:37:34.429Z,33.78
2023-04-28T23:40:02.494Z,31.45
2023-04-28T23:42:30.676Z,28.83
2023-04-28T23:45:01.401Z,33.17
2023-04-28T23:47:29.539Z,33.53
2023-04-28T23:49:57.195Z,35.20
2023-04-28T23:52:24.881Z,34.08
2023-04-28T23:54:52.532Z,31.17
2023-04-28T23:57:20.247Z,33.58
2023-04-28T23:59:48.056Z,36.72
